9°C  Θερμ.
5°C  Σημείο Δρόσου
76%  Υγρασία
Θερμοκρασία
2 KM/H
1 MPH
1 KTS
Άπνοια
Βόριος

Ταχύτητα Ανέμου
Λίγα Σύννεφα
Ατμοσφαιρική πίεση 1028.92 (hPa) - 30.38 (in)
Ορατότητα 10.0 (km) - 6.2 (mi)

Τρέχουσες συνθήκες
LGTS
Location 15(km)
Metar :LGTS 280920Z VRB01KT 9999 -DZ FEW009 SCT025 09/05 Q1029 NOSIG
Sun 28th February 11:20 am

Airport
  Metar Aviation API Data Provided by https://www.checkwx.com/ PHP scripts by weather34.com ©2021